WetterOnline ( https://www.wetteronline.de )

Wetter aktuell Krummhörn

Aktuelles Wetter: Norderney (16m)

6-stündlich | Neueste Meldungen
Ortszeit Temperatur Wetter
Do, 29.07. 20:00 18.5° C wolkig
Do, 29.07. 14:00 18.7° C leicht bewölkt
Do, 29.07. 8:00 15.4° C leicht bewölkt
Do, 29.07. 2:00 17.3° C fast wolkenlos
Mi, 28.07. 20:00 18.3° C leichter Regen
Mi, 28.07. 14:00 19.9° C leichter Regen
Mi, 28.07. 8:00 17.0° C -
Mi, 28.07. 2:00 17.9° C -
Ortszeit Temperatur Wetter
Do, 29.07. 22:00 17.8° C leicht bewölkt
Do, 29.07. 21:40 17.9° C leicht bewölkt
Do, 29.07. 21:30 18.0° C wolkig
Do, 29.07. 21:20 18.0° C wolkig
Do, 29.07. 21:10 18.2° C bedeckt
Do, 29.07. 21:00 18.5° C bedeckt
Do, 29.07. 20:50 18.5° C bedeckt
Do, 29.07. 20:30 18.5° C bewölkt
Do, 29.07. 20:00 18.5° C wolkig
Do, 29.07. 19:30 18.7° C wolkig
Do, 29.07. 19:00 18.8° C wolkig
Do, 29.07. 18:30 18.6° C leicht bewölkt
Ortszeit Relative Feuchte Sichtweite
Do, 29.07. 20:00 62% 45 km
Do, 29.07. 14:00 63% 30 km
Do, 29.07. 8:00 79% 55 km
Do, 29.07. 2:00 75% 40 km
Mi, 28.07. 20:00 83% 18 km
Mi, 28.07. 14:00 73% 27 km
Mi, 28.07. 8:00 88% -
Mi, 28.07. 2:00 84% -
Ortszeit Relative Feuchte Sichtweite
Do, 29.07. 22:00 69% 40 km
Do, 29.07. 21:40 68% -
Do, 29.07. 21:30 67% 50 km
Do, 29.07. 21:20 67% -
Do, 29.07. 21:10 67% -
Do, 29.07. 21:00 65% 50 km
Do, 29.07. 20:50 65% -
Do, 29.07. 20:30 64% 55 km
Do, 29.07. 20:00 62% 45 km
Do, 29.07. 19:30 60% 35 km
Do, 29.07. 19:00 59% 40 km
Do, 29.07. 18:30 61% 30 km
Ortszeit Niederschlagsmenge Niederschlagsart
Do, 29.07. 20:00 0.1 l/m2 in 12 Std. -
Do, 29.07. 14:00 0.1 l/m2 in 6 Std. Regen
Do, 29.07. 8:00 0.2 l/m2 in 12 Std. Regen
Do, 29.07. 2:00 0.1 l/m2 in 6 Std. Regen
Mi, 28.07. 20:00 2 l/m2 in 12 Std. Regen
Mi, 28.07. 14:00 0.1 l/m2 in 6 Std. -
Mi, 28.07. 8:00 0.6 l/m2 in 12 Std. -
Mi, 28.07. 2:00 0.5 l/m2 in 6 Std. -
Ortszeit Niederschlagsmenge Niederschlagsart
Do, 29.07. 22:00 0.0 l/m2 in 1 Std. -
Do, 29.07. 21:40 keine Meldung -
Do, 29.07. 21:30 0.0 l/m2 in 1 Std. -
Do, 29.07. 21:20 keine Meldung -
Do, 29.07. 21:10 keine Meldung -
Do, 29.07. 21:00 0.0 l/m2 in 1 Std. -
Do, 29.07. 20:50 keine Meldung -
Do, 29.07. 20:30 0.0 l/m2 in 1 Std. -
Do, 29.07. 20:00 0.0 l/m2 in 1 Std. -
Do, 29.07. 19:30 0.0 l/m2 in 1 Std. -
Do, 29.07. 19:00 0.0 l/m2 in 1 Std. -
Do, 29.07. 18:30 0.0 l/m2 in 1 Std. -
Ortszeit Stärke Spitze Richtung
km/h Bft. km/h Grad Sektor
Do, 29.07. 20:00 32 5 61 230° SW
Do, 29.07. 14:00 37 5 65 240° SW
Do, 29.07. 8:00 32 5 61 210° SW
Do, 29.07. 2:00 28 4 52 200° S
Mi, 28.07. 20:00 25 4 54 210° SW
Mi, 28.07. 14:00 24 4 43 200° S
Mi, 28.07. 8:00 - - - - -
Mi, 28.07. 2:00 - - - - -
Ortszeit Stärke Spitze Richtung
km/h Bft. km/h Grad Sektor
Do, 29.07. 22:00 32 5 54 220° SW
Do, 29.07. 21:40 31 5 - 230° SW
Do, 29.07. 21:30 31 5 54 230° SW
Do, 29.07. 21:20 31 5 - 230° SW
Do, 29.07. 21:10 30 5 - 220° SW
Do, 29.07. 21:00 30 5 52 230° SW
Do, 29.07. 20:50 30 5 - 230° SW
Do, 29.07. 20:30 32 5 50 230° SW
Do, 29.07. 20:00 32 5 58 230° SW
Do, 29.07. 19:30 32 5 58 240° SW
Do, 29.07. 19:00 33 5 59 240° SW
Do, 29.07. 18:30 36 5 58 240° SW
Ortszeit Untergrenze Bedeckung Gattung
total tief tief mittel hoch
Do, 29.07. 20:00 1170 m 6/8 6/8 - - -
Do, 29.07. 14:00 900 m 3/8 3/8 - - -
Do, 29.07. 8:00 1500 m 2/8 2/8 - - -
Do, 29.07. 2:00 1050 m 1/8 1/8 - - -
Mi, 28.07. 20:00 510 m 8/8 7/8 - - -
Mi, 28.07. 14:00 1140 m 7/8 7/8 - - -
Mi, 28.07. 8:00 - - - - - -
Mi, 28.07. 2:00 - - - - - -
Ortszeit Bedeckungsgrad in Achtel und Wolkenuntergrenze
Do, 29.07. 22:00 3(1500m)
Do, 29.07. 21:40 2(1500m)
Do, 29.07. 21:30 3(1050m) 3(1500m) 6(1800m)
Do, 29.07. 21:20 3(1050m) 3(1500m) 6(1800m)
Do, 29.07. 21:10 4(1050m) 5(1470m) 8(1800m)
Do, 29.07. 21:00 2(1080m) 7(1800m) 8(2100m)
Do, 29.07. 20:50 2(1080m) 7(1800m) 8(2100m)
Do, 29.07. 20:30 1(1020m) 3(1500m) 7(2100m)
Do, 29.07. 20:00 4(1170m) 5(1500m) 6(2100m)
Do, 29.07. 19:30 2(1110m) 6(2400m)
Do, 29.07. 19:00 2(1140m) 3(1410m) 6(2400m)
Do, 29.07. 18:30 2(1020m) 3(1230m) 4(1500m)
Ortszeit Luftdruck NN (hPa) Tendenz (hPa in 3 Std.)
Do, 29.07. 20:00 1008 + 0,4
Do, 29.07. 14:00 1007 + 1,5
Do, 29.07. 8:00 1005 + 0,8
Do, 29.07. 2:00 1005 - 1,4
Mi, 28.07. 20:00 1006 0,0
Mi, 28.07. 14:00 1007 - 0,6
Mi, 28.07. 8:00 1007 - 0,3
Mi, 28.07. 2:00 1009 - 0,5
Ortszeit Luftdruck NN (hPa) Tendenz (hPa in 3 Std.)
Do, 29.07. 22:00 1008 + 0,3
Do, 29.07. 21:40 1008 keine Meldung
Do, 29.07. 21:30 1008 0,0
Do, 29.07. 21:20 1008 keine Meldung
Do, 29.07. 21:10 1008 keine Meldung
Do, 29.07. 21:00 1008 - 0,1
Do, 29.07. 20:50 1008 keine Meldung
Do, 29.07. 20:30 1008 + 0,2
Do, 29.07. 20:00 1008 + 0,4
Do, 29.07. 19:30 1008 + 0,3
Do, 29.07. 19:00 1008 + 0,4
Do, 29.07. 18:30 1008 + 0,4
Ortszeit Schneehöhe (cm)
Do, 29.07. 20:00 -
Do, 29.07. 14:00 -
Do, 29.07. 8:00 -
Do, 29.07. 2:00 -
Mi, 28.07. 20:00 -
Mi, 28.07. 14:00 -
Mi, 28.07. 8:00 -
Mi, 28.07. 2:00 -
Ortszeit Schneehöhe (cm)
Do, 29.07. 22:00 -
Do, 29.07. 21:40 -
Do, 29.07. 21:30 -
Do, 29.07. 21:20 -
Do, 29.07. 21:10 -
Do, 29.07. 21:00 -
Do, 29.07. 20:50 -
Do, 29.07. 20:30 -
Do, 29.07. 20:00 -
Do, 29.07. 19:30 -
Do, 29.07. 19:00 -
Do, 29.07. 18:30 -
Link zu dieser Seite / Seite empfehlen

Das Wetter in ...